Time;durP1;ratioP1;P1;durP2;ratioP2;P2;SDS_P1;SDS_P2;PMS_P1;PMS_P2;Temp;Humidity;BMP_temperature;BMP_pressure;BME280_temperature;BME280_humidity;BME280_pressure;Samples;Min_cycle;Max_cycle;Signal;HPM_P1;HPM_P2
2023/04/01 00:01:25;;;;;;;;;;;9.70;99.90;;;;;;5032678;28;20075;-69
2023/04/01 00:03:50;;;;;;;;;;;9.90;99.90;;;;;;5046394;28;19920;-69
2023/04/01 00:06:17;;;;;;;;;;;10.00;99.90;;;;;;5048300;28;19920;-69
2023/04/01 00:08:42;;;;;;;;;;;9.70;99.90;;;;;;5048225;28;20686;-70
2023/04/01 00:11:08;;;;;;;;;;;9.70;99.90;;;;;;5047626;28;20239;-70
2023/04/01 00:13:34;;;;;;;;;;;9.80;99.90;;;;;;5049463;28;20022;-69
2023/04/01 00:16:01;;;;;;;;;;;9.90;99.90;;;;;;5047801;28;19920;-70
2023/04/01 00:18:26;;;;;;;;;;;9.40;99.90;;;;;;5050578;28;19920;-69
2023/04/01 00:20:53;;;;;;;;;;;9.50;99.90;;;;;;5030120;28;20266;-70
2023/04/01 00:23:19;;;;;;;;;;;9.70;99.90;;;;;;5031403;28;20590;-65
2023/04/01 00:25:46;;;;;;;;;;;9.40;99.90;;;;;;5037864;28;19920;-67
2023/04/01 00:28:12;;;;;;;;;;;9.40;99.90;;;;;;5050238;28;20341;-70
2023/04/01 00:30:38;;;;;;;;;;;9.40;99.90;;;;;;5030172;28;19924;-70
2023/04/01 00:33:03;;;;;;;;;;;9.60;99.90;;;;;;5047418;28;20527;-71
2023/04/01 00:35:29;;;;;;;;;;;9.50;99.90;;;;;;5047990;28;20316;-70
2023/04/01 00:37:55;;;;;;;;;;;9.50;99.90;;;;;;5048999;28;19920;-69
2023/04/01 00:40:28;;;;;;;;;;;9.50;99.90;;;;;;5049207;28;19943;-70
2023/04/01 00:42:54;;;;;;;;;;;9.80;99.90;;;;;;5047703;28;19920;-70
2023/04/01 00:45:25;;;;;;;;;;;9.50;99.90;;;;;;5049069;28;19946;-71
2023/04/01 00:47:51;;;;;;;;;;;9.50;99.90;;;;;;5030854;28;20417;-71
2023/04/01 00:50:17;;;;;;;;;;;9.70;99.90;;;;;;5015457;28;19951;-70
2023/04/01 00:52:42;;;;;;;;;;;9.50;99.90;;;;;;5049465;28;19921;-67
2023/04/01 00:55:09;;;;;;;;;;;9.40;99.90;;;;;;5055586;28;19920;-67
2023/04/01 00:57:36;;;;;;;;;;;9.40;99.90;;;;;;5037940;28;20381;-68
2023/04/01 01:00:03;;;;;;;;;;;9.40;99.90;;;;;;5051454;28;19970;-66
2023/04/01 01:02:31;;;;;;;;;;;9.30;99.90;;;;;;5054519;28;19920;-67
2023/04/01 01:04:56;;;;;;;;;;;9.60;99.90;;;;;;5055294;28;20428;-68
2023/04/01 01:07:22;;;;;;;;;;;9.40;99.90;;;;;;5055283;28;20187;-68
2023/04/01 01:09:59;;;;;;;;;;;9.40;99.90;;;;;;5057873;28;19943;-69
2023/04/01 01:12:44;;;;;;;;;;;9.80;99.90;;;;;;5056175;28;20004;-67
2023/04/01 01:15:09;;;;;;;;;;;9.40;99.90;;;;;;5055335;28;19993;-67
2023/04/01 01:17:38;;;;;;;;;;;9.50;99.90;;;;;;5037627;28;20421;-68
2023/04/01 01:20:16;;;;;;;;;;;9.70;99.90;;;;;;5037834;28;19920;-67
2023/04/01 01:22:44;;;;;;;;;;;9.30;99.90;;;;;;5037006;28;19920;-68
2023/04/01 01:25:16;;;;;;;;;;;9.60;99.90;;;;;;5056013;28;19923;-67
2023/04/01 01:27:45;;;;;;;;;;;9.60;99.90;;;;;;5055997;28;20458;-67
2023/04/01 01:30:22;;;;;;;;;;;9.30;99.90;;;;;;5054707;28;19928;-67
2023/04/01 01:32:51;;;;;;;;;;;9.80;99.90;;;;;;5055487;28;20020;-67
2023/04/01 01:35:26;;;;;;;;;;;9.30;99.90;;;;;;5053671;28;20026;-67
2023/04/01 01:37:56;;;;;;;;;;;9.60;99.90;;;;;;5054583;28;19925;-67
2023/04/01 01:40:23;;;;;;;;;;;9.60;99.90;;;;;;5052103;28;19921;-69
2023/04/01 01:42:51;;;;;;;;;;;9.70;99.90;;;;;;5064444;28;19982;-68
2023/04/01 01:45:19;;;;;;;;;;;9.70;99.90;;;;;;5047540;28;20542;-68
2023/04/01 01:47:45;;;;;;;;;;;9.40;99.90;;;;;;5045188;28;20217;-69
2023/04/01 01:50:11;;;;;;;;;;;9.30;99.90;;;;;;5030989;28;19920;-68
2023/04/01 01:52:37;;;;;;;;;;;9.70;99.90;;;;;;5029236;28;20079;-67
2023/04/01 01:55:03;;;;;;;;;;;9.30;99.90;;;;;;5030588;28;19966;-68
2023/04/01 01:57:30;;;;;;;;;;;9.70;99.90;;;;;;5046149;28;20476;-70
2023/04/01 01:59:59;;;;;;;;;;;9.30;99.90;;;;;;5046777;28;19921;-70
2023/04/01 02:02:25;;;;;;;;;;;9.30;99.90;;;;;;5028941;28;20037;-69
2023/04/01 02:04:51;;;;;;;;;;;9.70;99.90;;;;;;5047339;28;20420;-69
2023/04/01 02:07:20;;;;;;;;;;;9.30;99.90;;;;;;5028634;28;19920;-70
2023/04/01 02:09:46;;;;;;;;;;;9.60;99.90;;;;;;5046382;28;20239;-70
2023/04/01 02:12:13;;;;;;;;;;;9.70;99.90;;;;;;5030384;28;20515;-69
2023/04/01 02:15:00;;;;;;;;;;;9.70;99.90;;;;;;5046789;28;20673;-69
2023/04/01 02:17:27;;;;;;;;;;;9.70;99.90;;;;;;5046776;28;20354;-69
2023/04/01 02:19:56;;;;;;;;;;;9.60;99.90;;;;;;5046733;28;20534;-69
2023/04/01 02:22:24;;;;;;;;;;;9.40;99.90;;;;;;5029861;28;19970;-70
2023/04/01 02:24:51;;;;;;;;;;;9.70;99.90;;;;;;5030254;28;20011;-68
2023/04/01 02:27:18;;;;;;;;;;;9.30;99.90;;;;;;5045350;28;19920;-68
2023/04/01 02:29:43;;;;;;;;;;;9.50;99.90;;;;;;5044008;28;19926;-68
2023/04/01 02:32:09;;;;;;;;;;;9.30;99.90;;;;;;5046571;28;20301;-69
2023/04/01 02:34:36;;;;;;;;;;;9.60;99.90;;;;;;5029872;28;20442;-69
2023/04/01 02:37:01;;;;;;;;;;;9.70;99.90;;;;;;5028056;28;19992;-68
2023/04/01 02:39:27;;;;;;;;;;;9.40;99.90;;;;;;5030189;28;19924;-69
2023/04/01 02:41:53;;;;;;;;;;;9.30;99.90;;;;;;5030179;28;19920;-68
2023/04/01 02:44:19;;;;;;;;;;;9.30;99.90;;;;;;5046750;28;20151;-69
2023/04/01 02:46:45;;;;;;;;;;;9.30;99.90;;;;;;5046371;28;20667;-68
2023/04/01 02:49:10;;;;;;;;;;;9.70;99.90;;;;;;5028015;28;19927;-68
2023/04/01 02:51:36;;;;;;;;;;;9.50;99.90;;;;;;5044399;28;20404;-69
2023/04/01 02:54:02;;;;;;;;;;;9.40;99.90;;;;;;5046224;28;19970;-70
2023/04/01 02:56:27;;;;;;;;;;;9.40;99.90;;;;;;5050263;28;19964;-71
2023/04/01 02:58:53;;;;;;;;;;;9.40;99.90;;;;;;5050035;28;20329;-71
2023/04/01 03:01:19;;;;;;;;;;;9.80;99.90;;;;;;5049089;28;19928;-71
2023/04/01 03:03:45;;;;;;;;;;;9.80;99.90;;;;;;5033735;28;20137;-70
2023/04/01 03:06:12;;;;;;;;;;;9.70;99.90;;;;;;5049174;28;20386;-71
2023/04/01 03:08:37;;;;;;;;;;;9.80;99.90;;;;;;5050035;28;19920;-70
2023/04/01 03:11:03;;;;;;;;;;;9.40;99.90;;;;;;5033682;28;20140;-70
2023/04/01 03:13:28;;;;;;;;;;;9.80;99.90;;;;;;5049515;28;20144;-71
2023/04/01 03:15:54;;;;;;;;;;;9.90;99.90;;;;;;5049352;28;20442;-71
2023/04/01 03:18:20;;;;;;;;;;;9.40;99.90;;;;;;5033789;28;20057;-71
2023/04/01 03:20:45;;;;;;;;;;;9.60;99.90;;;;;;5050303;28;19924;-71
2023/04/01 03:23:11;;;;;;;;;;;9.80;99.90;;;;;;5048011;28;19935;-71
2023/04/01 03:25:37;;;;;;;;;;;9.50;99.90;;;;;;5021871;28;20163;-71
2023/04/01 03:28:03;;;;;;;;;;;9.50;99.90;;;;;;5034146;28;20354;-71
2023/04/01 03:30:32;;;;;;;;;;;9.70;99.90;;;;;;5049930;28;20421;-71
2023/04/01 03:32:59;;;;;;;;;;;9.60;99.90;;;;;;5048505;28;20019;-70
2023/04/01 03:35:25;;;;;;;;;;;9.70;99.90;;;;;;5052050;28;20011;-67
2023/04/01 03:37:51;;;;;;;;;;;9.30;99.90;;;;;;5057955;28;20013;-68
2023/04/01 03:40:17;;;;;;;;;;;9.70;99.90;;;;;;5052166;28;20006;-69
2023/04/01 03:42:42;;;;;;;;;;;9.50;99.90;;;;;;5049016;28;19921;-68
2023/04/01 03:45:09;;;;;;;;;;;9.70;99.90;;;;;;5049834;28;20424;-68
2023/04/01 03:47:35;;;;;;;;;;;9.40;99.90;;;;;;5032005;28;19943;-69
2023/04/01 03:50:00;;;;;;;;;;;9.30;99.90;;;;;;5049244;28;20405;-69
2023/04/01 03:52:26;;;;;;;;;;;9.60;99.90;;;;;;5031028;28;19924;-70
2023/04/01 03:54:51;;;;;;;;;;;9.70;99.90;;;;;;5048230;28;19916;-67
2023/04/01 03:57:17;;;;;;;;;;;9.40;99.90;;;;;;5053119;28;19924;-66
2023/04/01 03:59:42;;;;;;;;;;;9.30;99.90;;;;;;5056919;28;19927;-67
2023/04/01 04:02:08;;;;;;;;;;;9.30;99.90;;;;;;5022125;28;19990;-67
2023/04/01 04:04:34;;;;;;;;;;;9.40;99.90;;;;;;5057091;28;20465;-67
2023/04/01 04:06:59;;;;;;;;;;;9.50;99.90;;;;;;5054206;28;19916;-68
2023/04/01 04:09:25;;;;;;;;;;;9.30;99.90;;;;;;5022308;28;20573;-68
2023/04/01 04:11:51;;;;;;;;;;;9.30;99.90;;;;;;5036767;28;19932;-68
2023/04/01 04:14:16;;;;;;;;;;;9.30;99.90;;;;;;5040251;28;20551;-67
2023/04/01 04:16:42;;;;;;;;;;;9.70;99.90;;;;;;5039064;28;19927;-68
2023/04/01 04:19:07;;;;;;;;;;;9.30;99.90;;;;;;5056738;28;19924;-68
2023/04/01 04:21:33;;;;;;;;;;;9.70;99.90;;;;;;5039199;28;19925;-68
2023/04/01 04:24:02;;;;;;;;;;;9.60;99.90;;;;;;5056835;28;20002;-67
2023/04/01 04:26:27;;;;;;;;;;;9.30;99.90;;;;;;5057773;28;19939;-69
2023/04/01 04:28:54;;;;;;;;;;;9.60;99.90;;;;;;5055831;28;20135;-68
2023/04/01 04:31:20;;;;;;;;;;;9.50;99.90;;;;;;5056252;28;19942;-67
2023/04/01 04:33:46;;;;;;;;;;;9.30;99.90;;;;;;5056476;28;19965;-67
2023/04/01 04:36:11;;;;;;;;;;;9.30;99.90;;;;;;5055678;28;20239;-68
2023/04/01 04:38:37;;;;;;;;;;;9.30;99.90;;;;;;5038413;28;19960;-68
2023/04/01 04:41:03;;;;;;;;;;;9.70;99.90;;;;;;5057499;28;19920;-68
2023/04/01 04:43:28;;;;;;;;;;;9.30;99.90;;;;;;5055540;28;19931;-68
2023/04/01 04:45:54;;;;;;;;;;;9.30;99.90;;;;;;5055185;28;19970;-67
2023/04/01 04:48:20;;;;;;;;;;;9.50;99.90;;;;;;5038144;28;19925;-68
2023/04/01 04:50:49;;;;;;;;;;;9.70;99.90;;;;;;5055542;28;19944;-68
2023/04/01 04:53:16;;;;;;;;;;;9.70;99.90;;;;;;5037111;28;20331;-67
2023/04/01 04:55:48;;;;;;;;;;;9.30;99.90;;;;;;5039545;28;20382;-67
2023/04/01 04:58:13;;;;;;;;;;;9.30;99.90;;;;;;5053039;28;20402;-68
2023/04/01 05:00:39;;;;;;;;;;;9.30;99.90;;;;;;5055410;28;19916;-67
2023/04/01 05:03:04;;;;;;;;;;;9.70;99.90;;;;;;5052304;28;20023;-68
2023/04/01 05:05:30;;;;;;;;;;;9.30;99.90;;;;;;5056558;28;20066;-67
2023/04/01 05:07:56;;;;;;;;;;;9.70;99.90;;;;;;5053487;28;19920;-69
2023/04/01 05:10:21;;;;;;;;;;;9.70;99.90;;;;;;5054896;28;20147;-67
2023/04/01 05:12:47;;;;;;;;;;;9.70;99.90;;;;;;5038405;28;19978;-68
2023/04/01 05:15:13;;;;;;;;;;;9.30;99.90;;;;;;5037535;28;20469;-68
2023/04/01 05:17:39;;;;;;;;;;;9.70;99.90;;;;;;5053406;28;19989;-67
2023/04/01 05:20:05;;;;;;;;;;;9.30;99.90;;;;;;5053700;28;20325;-68
2023/04/01 05:22:31;;;;;;;;;;;9.60;99.90;;;;;;5054214;28;19986;-68
2023/04/01 05:24:57;;;;;;;;;;;9.50;99.90;;;;;;5038171;28;19920;-69
2023/04/01 05:27:22;;;;;;;;;;;9.30;99.90;;;;;;5037292;28;19920;-68
2023/04/01 05:29:48;;;;;;;;;;;9.80;99.90;;;;;;5037435;28;19999;-68
2023/04/01 05:32:13;;;;;;;;;;;9.30;99.90;;;;;;5055037;28;20223;-70
2023/04/01 05:34:39;;;;;;;;;;;9.60;99.90;;;;;;5053710;28;19959;-66
2023/04/01 05:37:05;;;;;;;;;;;9.40;99.90;;;;;;5052384;28;19947;-69
2023/04/01 05:39:30;;;;;;;;;;;9.50;99.90;;;;;;5037364;28;19965;-69
2023/04/01 05:41:56;;;;;;;;;;;9.50;99.90;;;;;;5054951;28;19920;-69
2023/04/01 05:44:21;;;;;;;;;;;9.40;99.90;;;;;;5054831;28;19920;-68
2023/04/01 05:46:47;;;;;;;;;;;9.40;99.90;;;;;;5053426;28;20282;-68
2023/04/01 05:49:12;;;;;;;;;;;9.70;99.90;;;;;;5053396;28;19916;-68
2023/04/01 05:51:38;;;;;;;;;;;9.40;99.90;;;;;;5037079;28;19947;-68
2023/04/01 05:54:04;;;;;;;;;;;9.80;99.90;;;;;;5053905;28;20392;-68
2023/04/01 05:56:34;;;;;;;;;;;9.70;99.90;;;;;;5053565;28;19963;-69
2023/04/01 05:58:59;;;;;;;;;;;9.50;99.90;;;;;;5053415;28;19960;-69
2023/04/01 06:01:25;;;;;;;;;;;9.90;99.90;;;;;;5052479;28;20463;-68
2023/04/01 06:03:50;;;;;;;;;;;10.00;99.90;;;;;;5036278;28;19974;-69
2023/04/01 06:06:22;;;;;;;;;;;9.60;99.90;;;;;;5052810;28;19962;-68
2023/04/01 06:08:48;;;;;;;;;;;9.60;99.90;;;;;;5036626;28;19920;-68
2023/04/01 06:11:23;;;;;;;;;;;9.70;99.90;;;;;;5028308;28;20275;-67
2023/04/01 06:13:49;;;;;;;;;;;9.80;99.90;;;;;;5034961;28;20209;-67
2023/04/01 06:16:33;;;;;;;;;;;9.90;99.90;;;;;;5053425;28;20363;-70
2023/04/01 06:19:05;;;;;;;;;;;9.80;99.90;;;;;;5054867;28;20022;-67
2023/04/01 06:21:33;;;;;;;;;;;9.70;99.90;;;;;;5051445;28;20320;-68
2023/04/01 06:24:08;;;;;;;;;;;9.90;99.90;;;;;;5056485;28;19921;-69
2023/04/01 06:26:52;;;;;;;;;;;10.00;99.90;;;;;;5053663;28;20378;-70
2023/04/01 06:29:30;;;;;;;;;;;10.20;99.90;;;;;;5052717;28;19921;-67
2023/04/01 06:32:09;;;;;;;;;;;9.70;99.90;;;;;;5054469;28;20332;-67
2023/04/01 06:34:44;;;;;;;;;;;9.70;99.90;;;;;;5053948;28;19924;-67
2023/04/01 06:37:25;;;;;;;;;;;10.10;99.90;;;;;;5055459;28;20313;-67
2023/04/01 06:39:51;;;;;;;;;;;9.90;99.90;;;;;;5054762;28;20416;-68
2023/04/01 06:42:22;;;;;;;;;;;9.80;99.90;;;;;;5040305;28;19920;-68
2023/04/01 06:44:49;;;;;;;;;;;10.20;99.90;;;;;;5059689;28;19920;-67
2023/04/01 06:47:34;;;;;;;;;;;10.20;99.90;;;;;;5042262;28;20254;-69
2023/04/01 06:50:00;;;;;;;;;;;10.00;99.90;;;;;;5041926;28;20669;-69
2023/04/01 06:52:31;;;;;;;;;;;10.20;99.90;;;;;;5062906;28;19931;-67
2023/04/01 06:55:17;;;;;;;;;;;9.80;99.90;;;;;;5060682;28;20489;-68
2023/04/01 06:57:45;;;;;;;;;;;10.20;99.90;;;;;;5062802;28;19920;-68
2023/04/01 07:00:17;;;;;;;;;;;9.90;99.90;;;;;;5042290;28;20208;-67
2023/04/01 07:02:47;;;;;;;;;;;10.40;99.90;;;;;;5059291;28;19916;-68
2023/04/01 07:05:14;;;;;;;;;;;10.10;99.90;;;;;;5056547;28;19928;-67
2023/04/01 07:07:42;;;;;;;;;;;10.30;99.90;;;;;;5053350;28;20303;-69
2023/04/01 07:10:15;;;;;;;;;;;10.40;99.90;;;;;;5053960;28;19950;-68
2023/04/01 07:12:49;;;;;;;;;;;10.10;99.90;;;;;;5053763;28;20532;-68
2023/04/01 07:15:18;;;;;;;;;;;10.50;99.90;;;;;;5053919;28;20432;-67
2023/04/01 07:17:45;;;;;;;;;;;10.10;99.90;;;;;;5032123;28;20344;-68
2023/04/01 07:20:22;;;;;;;;;;;10.20;99.90;;;;;;5037102;28;19920;-67
2023/04/01 07:22:49;;;;;;;;;;;10.30;99.90;;;;;;5054203;28;19924;-67
2023/04/01 07:25:17;;;;;;;;;;;10.50;99.90;;;;;;5052709;28;20282;-68
2023/04/01 07:27:43;;;;;;;;;;;10.50;99.90;;;;;;5042263;28;19922;-68
2023/04/01 07:30:16;;;;;;;;;;;10.50;99.90;;;;;;5055936;28;19920;-68
2023/04/01 07:32:41;;;;;;;;;;;10.50;99.90;;;;;;5053607;28;19925;-68
2023/04/01 07:35:07;;;;;;;;;;;10.40;99.90;;;;;;5039077;28;19921;-68
2023/04/01 07:37:42;;;;;;;;;;;10.40;99.90;;;;;;5037295;28;20639;-68
2023/04/01 07:40:17;;;;;;;;;;;10.10;99.90;;;;;;5047253;28;19982;-67
2023/04/01 07:42:54;;;;;;;;;;;10.30;99.90;;;;;;5034076;28;19931;-68
2023/04/01 07:45:28;;;;;;;;;;;10.50;99.90;;;;;;5053106;28;19920;-67
2023/04/01 07:48:12;;;;;;;;;;;10.50;99.90;;;;;;5060982;28;19963;-68
2023/04/01 07:50:47;;;;;;;;;;;10.50;99.90;;;;;;5059535;28;19971;-67
2023/04/01 07:53:24;;;;;;;;;;;10.10;99.90;;;;;;5060598;28;19931;-67
2023/04/01 07:55:52;;;;;;;;;;;10.10;99.90;;;;;;5044073;28;20263;-67
2023/04/01 07:58:36;;;;;;;;;;;10.60;99.90;;;;;;5061344;28;19924;-67
2023/04/01 08:01:12;;;;;;;;;;;10.20;99.90;;;;;;5059550;28;20616;-67
2023/04/01 08:03:45;;;;;;;;;;;10.40;99.90;;;;;;5061565;28;19920;-68
2023/04/01 08:06:29;;;;;;;;;;;10.30;99.90;;;;;;5059745;28;19924;-68
2023/04/01 08:08:55;;;;;;;;;;;10.60;99.90;;;;;;5042264;28;20105;-68
2023/04/01 08:11:23;;;;;;;;;;;10.60;99.90;;;;;;5059217;28;19924;-67
2023/04/01 08:14:03;;;;;;;;;;;10.50;99.90;;;;;;5060816;28;20444;-68
2023/04/01 08:16:52;;;;;;;;;;;10.80;99.90;;;;;;5058955;28;19970;-68
2023/04/01 08:19:18;;;;;;;;;;;10.70;99.90;;;;;;5050339;28;19925;-67
2023/04/01 08:21:47;;;;;;;;;;;9.80;99.90;;;;;;5059873;28;19920;-68
2023/04/01 08:24:26;;;;;;;;;;;9.60;99.90;;;;;;5059477;28;20196;-69
2023/04/01 08:26:53;;;;;;;;;;;9.30;99.90;;;;;;5059549;28;19920;-69
2023/04/01 08:29:21;;;;;;;;;;;9.60;99.90;;;;;;5059167;28;19920;-69
2023/04/01 08:32:08;;;;;;;;;;;9.60;99.90;;;;;;5042258;28;19981;-68
2023/04/01 08:34:37;;;;;;;;;;;9.50;99.90;;;;;;5059084;28;19916;-68
2023/04/01 08:37:05;;;;;;;;;;;9.50;99.90;;;;;;5060934;28;20268;-68
2023/04/01 08:39:34;;;;;;;;;;;9.10;99.90;;;;;;5042756;28;20254;-67
2023/04/01 08:42:08;;;;;;;;;;;9.20;99.90;;;;;;5060986;28;20611;-68
2023/04/01 08:44:39;;;;;;;;;;;9.40;99.90;;;;;;5059257;28;19959;-68
2023/04/01 08:47:31;;;;;;;;;;;9.10;99.90;;;;;;5042513;28;19963;-68
2023/04/01 08:53:18;;;;;;;;;;;9.40;99.90;;;;;;5059390;28;20368;-68
2023/04/01 08:55:51;;;;;;;;;;;9.30;99.90;;;;;;5058311;28;19967;-68
2023/04/01 08:58:35;;;;;;;;;;;8.90;99.90;;;;;;5058969;28;19920;-69
2023/04/01 09:01:11;;;;;;;;;;;9.20;99.90;;;;;;5060291;28;20479;-68
2023/04/01 09:03:59;;;;;;;;;;;8.90;99.90;;;;;;5059773;28;19920;-68
2023/04/01 09:06:28;;;;;;;;;;;8.90;99.90;;;;;;5035874;28;20097;-67
2023/04/01 09:09:19;;;;;;;;;;;8.90;99.90;;;;;;5059488;28;20437;-67
2023/04/01 09:12:00;;;;;;;;;;;8.90;99.90;;;;;;5060196;28;20014;-67
2023/04/01 09:14:37;;;;;;;;;;;8.90;99.90;;;;;;5042247;28;20431;-67
2023/04/01 09:17:09;;;;;;;;;;;8.90;99.90;;;;;;5060219;28;19920;-68
2023/04/01 09:19:53;;;;;;;;;;;9.20;99.90;;;;;;5057584;28;19985;-67
2023/04/01 09:22:31;;;;;;;;;;;9.20;99.90;;;;;;5058668;28;19955;-68
2023/04/01 09:25:05;;;;;;;;;;;9.00;99.90;;;;;;5058635;28;19923;-68
2023/04/01 09:27:43;;;;;;;;;;;9.40;99.90;;;;;;5058577;28;19969;-68
2023/04/01 09:30:18;;;;;;;;;;;9.20;99.90;;;;;;5058953;28;19921;-67
2023/04/01 09:33:03;;;;;;;;;;;9.10;99.90;;;;;;5058210;28;19931;-67
2023/04/01 09:35:31;;;;;;;;;;;9.00;99.90;;;;;;5057769;28;20019;-69
2023/04/01 09:38:00;;;;;;;;;;;9.40;99.90;;;;;;5041460;28;20530;-68
2023/04/01 09:40:25;;;;;;;;;;;9.10;99.90;;;;;;5058322;28;19924;-68
2023/04/01 09:43:16;;;;;;;;;;;9.30;99.90;;;;;;5060165;28;19920;-68
2023/04/01 09:45:54;;;;;;;;;;;9.40;99.90;;;;;;5059856;28;19921;-68
2023/04/01 09:48:22;;;;;;;;;;;9.40;99.90;;;;;;5041891;28;20424;-68
2023/04/01 09:50:57;;;;;;;;;;;9.10;99.90;;;;;;5057992;28;19920;-67
2023/04/01 09:53:42;;;;;;;;;;;9.00;99.90;;;;;;5058429;28;19924;-70
2023/04/01 09:56:10;;;;;;;;;;;8.90;99.90;;;;;;5058400;28;20337;-68
2023/04/01 09:58:51;;;;;;;;;;;9.20;99.90;;;;;;5059444;28;19921;-68
2023/04/01 10:01:31;;;;;;;;;;;9.30;99.90;;;;;;5041741;28;20474;-69
2023/04/01 10:04:23;;;;;;;;;;;9.20;99.90;;;;;;5060224;28;19920;-68
2023/04/01 10:07:21;;;;;;;;;;;9.00;99.90;;;;;;5045512;28;19920;-68
2023/04/01 10:10:19;;;;;;;;;;;9.00;99.90;;;;;;5039439;28;19924;-68
2023/04/01 10:12:54;;;;;;;;;;;9.10;99.90;;;;;;5062134;28;20383;-67
2023/04/01 10:15:34;;;;;;;;;;;9.30;99.90;;;;;;5063387;28;20038;-67
2023/04/01 10:18:06;;;;;;;;;;;9.10;99.90;;;;;;5061353;28;19947;-67
2023/04/01 10:20:46;;;;;;;;;;;9.00;99.90;;;;;;5060402;28;20413;-67
2023/04/01 10:23:19;;;;;;;;;;;9.20;99.90;;;;;;5061176;28;19970;-68
2023/04/01 10:26:09;;;;;;;;;;;8.80;99.90;;;;;;5043465;28;19920;-69
2023/04/01 10:28:55;;;;;;;;;;;8.70;99.90;;;;;;5054358;28;20425;-69
2023/04/01 10:31:26;;;;;;;;;;;8.80;99.90;;;;;;5059802;28;19963;-67
2023/04/01 10:34:05;;;;;;;;;;;9.00;99.90;;;;;;5059638;28;19931;-68
2023/04/01 10:36:33;;;;;;;;;;;8.60;99.90;;;;;;5060139;28;19920;-69
2023/04/01 10:39:18;;;;;;;;;;;8.90;99.90;;;;;;5043783;28;19986;-68
2023/04/01 10:41:43;;;;;;;;;;;8.70;99.90;;;;;;5060351;28;19920;-68
2023/04/01 10:44:12;;;;;;;;;;;8.90;99.90;;;;;;5061982;28;19920;-69
2023/04/01 10:46:41;;;;;;;;;;;8.70;99.90;;;;;;5043532;28;20070;-68
2023/04/01 10:49:23;;;;;;;;;;;8.70;99.90;;;;;;5060066;28;20394;-68
2023/04/01 10:52:04;;;;;;;;;;;9.10;99.90;;;;;;5043376;28;19920;-67
2023/04/01 10:54:32;;;;;;;;;;;9.00;99.90;;;;;;5042598;28;19920;-68
2023/04/01 10:57:10;;;;;;;;;;;9.10;99.90;;;;;;5059627;28;20596;-68
2023/04/01 10:59:45;;;;;;;;;;;8.80;99.90;;;;;;5059179;28;20283;-68
2023/04/01 11:02:29;;;;;;;;;;;8.80;99.90;;;;;;5042241;28;20015;-68
2023/04/01 11:05:04;;;;;;;;;;;8.90;99.90;;;;;;5059510;28;20174;-68
2023/04/01 11:07:49;;;;;;;;;;;8.70;99.90;;;;;;5058888;28;20021;-68
2023/04/01 11:10:41;;;;;;;;;;;9.10;99.90;;;;;;5060071;28;19920;-68
2023/04/01 11:13:17;;;;;;;;;;;8.90;99.90;;;;;;5042270;28;19920;-67
2023/04/01 11:15:42;;;;;;;;;;;9.00;99.90;;;;;;5059003;28;20493;-67
2023/04/01 11:18:17;;;;;;;;;;;9.10;99.90;;;;;;5060013;28;19971;-66
2023/04/01 11:21:01;;;;;;;;;;;9.00;99.90;;;;;;5060133;28;20107;-67
2023/04/01 11:23:42;;;;;;;;;;;9.10;99.90;;;;;;5056367;28;19924;-67
2023/04/01 11:26:12;;;;;;;;;;;9.20;99.90;;;;;;5055684;28;20433;-67
2023/04/01 11:28:47;;;;;;;;;;;9.30;99.90;;;;;;5054918;28;20101;-67
2023/04/01 11:31:12;;;;;;;;;;;9.40;99.90;;;;;;5038268;28;19920;-67
2023/04/01 11:33:43;;;;;;;;;;;9.40;99.90;;;;;;5055511;28;20436;-67
2023/04/01 11:36:09;;;;;;;;;;;9.30;99.90;;;;;;5055743;28;19920;-68
2023/04/01 11:38:35;;;;;;;;;;;9.60;99.90;;;;;;5038339;28;19924;-67
2023/04/01 11:41:06;;;;;;;;;;;9.50;99.90;;;;;;5054274;28;19927;-67
2023/04/01 11:43:43;;;;;;;;;;;9.60;99.90;;;;;;5052957;28;20030;-67
2023/04/01 11:46:19;;;;;;;;;;;9.40;99.90;;;;;;5037102;28;19920;-66
2023/04/01 11:48:52;;;;;;;;;;;9.60;99.90;;;;;;5038750;28;20881;-66
2023/04/01 11:51:18;;;;;;;;;;;9.30;99.90;;;;;;5036188;28;20362;-66
2023/04/01 11:54:02;;;;;;;;;;;9.20;99.90;;;;;;5053890;28;19925;-66
2023/04/01 11:56:38;;;;;;;;;;;9.40;99.90;;;;;;5055373;28;20318;-66
2023/04/01 11:59:03;;;;;;;;;;;9.20;99.90;;;;;;5036753;28;20118;-66
2023/04/01 12:01:41;;;;;;;;;;;9.10;99.90;;;;;;5036257;28;19920;-67
2023/04/01 12:04:23;;;;;;;;;;;9.10;99.90;;;;;;5053122;28;20370;-67
2023/04/01 12:06:50;;;;;;;;;;;9.10;91.90;;;;;;5040359;28;19990;-66
2023/04/01 12:09:16;;;;;;;;;;;9.00;1.00;;;;;;5034931;28;19924;-67
2023/04/01 12:11:41;;;;;;;;;;;9.00;64.40;;;;;;5052587;28;19927;-67
2023/04/01 12:14:27;;;;;;;;;;;9.30;69.00;;;;;;5054771;28;19989;-66
2023/04/01 12:16:58;;;;;;;;;;;9.30;1.00;;;;;;5036896;28;19947;-67
2023/04/01 12:19:23;;;;;;;;;;;9.20;53.30;;;;;;5037041;28;20395;-66
2023/04/01 12:21:59;;;;;;;;;;;9.30;1.00;;;;;;5054586;28;20209;-66
2023/04/01 12:24:24;;;;;;;;;;;9.30;1.00;;;;;;5035006;28;20379;-69
2023/04/01 12:27:05;;;;;;;;;;;9.30;99.90;;;;;;5047538;28;19928;-69
2023/04/01 12:29:55;;;;;;;;;;;9.30;1.00;;;;;;5046152;28;19920;-68
2023/04/01 12:32:30;;;;;;;;;;;9.50;1.00;;;;;;5051175;28;19925;-67
2023/04/01 12:35:00;;;;;;;;;;;9.30;99.90;;;;;;5048493;28;20094;-66
2023/04/01 12:37:52;;;;;;;;;;;9.50;99.90;;;;;;5052144;28;20239;-67
2023/04/01 12:40:20;;;;;;;;;;;9.30;1.00;;;;;;5043842;28;20139;-66
2023/04/01 12:43:10;;;;;;;;;;;9.40;99.90;;;;;;5049093;28;20152;-67
2023/04/01 12:45:51;;;;;;;;;;;9.40;99.90;;;;;;5048032;28;19921;-67
2023/04/01 12:48:26;;;;;;;;;;;9.50;99.90;;;;;;5048285;28;19917;-68
2023/04/01 12:50:55;;;;;;;;;;;9.50;99.90;;;;;;5050633;28;20405;-68
2023/04/01 12:53:29;;;;;;;;;;;9.20;99.90;;;;;;5050203;28;19935;-67
2023/04/01 12:55:55;;;;;;;;;;;9.40;99.90;;;;;;5051802;28;20313;-68
2023/04/01 12:58:30;;;;;;;;;;;9.40;99.90;;;;;;5053788;28;20054;-67
2023/04/01 13:01:14;;;;;;;;;;;9.40;99.90;;;;;;4981440;28;20372;-69
2023/04/01 13:05:37;;;;;;;1.70;0.20;;;9.20;99.90;;;;;;5088471;27;20547;-66
2023/04/01 13:08:24;;;;;;;0.68;0.20;;;9.40;99.90;;;;;;4939294;28;111817;-66
2023/04/01 13:11:25;;;;;;;0.98;0.20;;;9.30;99.90;;;;;;5030219;28;20045;-67
2023/04/01 13:14:24;;;;;;;0.32;0.10;;;9.40;99.90;;;;;;4966075;28;20040;-66
2023/04/01 13:17:01;;;;;;;0.82;0.28;;;9.20;99.90;;;;;;5019628;28;20406;-66
2023/04/01 13:19:45;;;;;;;1.33;0.20;;;9.30;99.90;;;;;;5036853;28;20037;-67
2023/04/01 13:22:29;;;;;;;0.50;0.20;;;9.30;99.90;;;;;;5029458;28;20362;-65
2023/04/01 13:25:06;;;;;;;0.50;0.10;;;9.30;99.90;;;;;;5039192;28;20079;-66
2023/04/01 13:27:45;;;;;;;0.30;0.15;;;9.50;99.90;;;;;;5034845;28;20289;-67
2023/04/01 13:30:11;;;;;;;0.47;0.17;;;9.30;99.90;;;;;;5045544;28;20101;-66
2023/04/01 13:33:01;;;;;;;2.40;0.20;;;9.40;99.90;;;;;;5038188;28;20064;-66
2023/04/01 13:36:17;;;;;;;2.15;0.45;;;9.20;99.90;;;;;;5035123;28;20052;-65
2023/04/01 13:39:09;;;;;;;1.23;0.30;;;9.10;99.90;;;;;;4990600;28;20053;-66
2023/04/01 13:42:11;;;;;;;0.57;0.17;;;9.20;99.90;;;;;;5031297;28;20411;-66
2023/04/01 13:44:45;;;;;;;0.68;0.20;;;9.30;99.90;;;;;;5058942;28;20108;-66
2023/04/01 13:47:29;;;;;;;1.33;0.20;;;9.10;99.90;;;;;;5037839;28;20386;-66
2023/04/01 13:49:58;;;;;;;0.50;0.20;;;9.10;99.90;;;;;;5063711;28;20040;-65
2023/04/01 13:52:26;;;;;;;0.63;0.10;;;9.00;99.90;;;;;;5063799;28;20067;-66
2023/04/01 13:55:29;;;;;;;1.10;0.20;;;9.10;99.90;;;;;;5039894;28;20152;-66
2023/04/01 13:58:00;;;;;;;1.40;0.30;;;9.00;99.90;;;;;;5028685;28;20056;-66
2023/04/01 14:00:41;;;;;;;0.50;0.20;;;9.00;99.90;;;;;;5045329;28;20570;-66
2023/04/01 14:03:19;;;;;;;2.75;0.50;;;8.90;99.90;;;;;;5051534;28;20052;-66
2023/04/01 14:06:03;;;;;;;1.52;0.20;;;8.80;99.90;;;;;;5031787;28;20504;-66
2023/04/01 14:08:51;;;;;;;1.05;0.15;;;8.70;99.90;;;;;;5032855;28;20055;-66
2023/04/01 14:11:27;;;;;;;0.90;0.20;;;8.80;99.90;;;;;;5050025;28;20530;-67
2023/04/01 14:14:23;;;;;;;0.80;0.30;;;8.70;99.90;;;;;;5033132;28;20049;-66
2023/04/01 14:17:13;;;;;;;1.35;0.20;;;8.50;99.90;;;;;;4974082;28;20053;-65
2023/04/01 14:20:00;;;;;;;1.60;0.47;;;8.60;99.90;;;;;;5020661;28;20053;-65
2023/04/01 14:22:47;;;;;;;1.60;0.40;;;8.50;99.90;;;;;;5016381;28;20121;-66
2023/04/01 14:25:32;;;;;;;0.80;0.40;;;8.50;99.90;;;;;;5022515;28;20049;-65
2023/04/01 14:28:23;;;;;;;1.05;0.57;;;8.50;99.90;;;;;;5020769;28;20037;-65
2023/04/01 14:31:12;;;;;;;2.22;0.90;;;8.40;99.90;;;;;;5031413;28;20037;-64
2023/04/01 14:34:06;;;;;;;2.00;0.40;;;8.40;99.90;;;;;;5021752;28;20119;-64
2023/04/01 14:36:47;;;;;;;2.35;0.35;;;8.30;99.90;;;;;;4998489;28;20053;-65
2023/04/01 14:39:19;;;;;;;3.50;0.90;;;8.20;99.90;;;;;;5031896;28;20850;-65
2023/04/01 14:42:11;;;;;;;2.97;0.55;;;8.30;99.90;;;;;;5034009;28;20057;-64
2023/04/01 14:45:02;;;;;;;2.05;0.40;;;8.20;99.90;;;;;;5024331;28;20470;-64
2023/04/01 14:47:40;;;;;;;1.77;0.73;;;8.20;99.90;;;;;;5021974;28;20483;-64
2023/04/01 14:50:12;;;;;;;3.92;1.10;;;8.10;99.90;;;;;;5016910;28;20033;-65
2023/04/01 14:53:02;;;;;;;3.38;0.90;;;8.00;99.90;;;;;;5018385;28;20079;-65